createdAt,value
2017-10-16T00:01:51.879Z,15.13
2017-10-16T00:04:18.134Z,13.53
2017-10-16T00:06:44.381Z,15.10
2017-10-16T00:09:10.632Z,16.00
2017-10-16T00:11:37.945Z,16.47
2017-10-16T00:14:04.174Z,11.00
2017-10-16T00:16:30.402Z,11.30
2017-10-16T00:18:57.038Z,16.50
2017-10-16T00:21:23.278Z,14.60
2017-10-16T00:23:49.522Z,16.23
2017-10-16T00:26:16.089Z,14.00
2017-10-16T00:28:42.366Z,14.43
2017-10-16T00:31:08.910Z,14.03
2017-10-16T00:33:35.148Z,13.70
2017-10-16T00:36:01.399Z,14.90
2017-10-16T00:38:28.386Z,22.23
2017-10-16T00:40:54.630Z,16.57
2017-10-16T00:43:21.093Z,16.20
2017-10-16T00:45:48.107Z,12.10
2017-10-16T00:48:14.357Z,16.97
2017-10-16T00:50:40.629Z,14.23
2017-10-16T00:53:06.899Z,12.50
2017-10-16T00:55:33.154Z,14.57
2017-10-16T00:58:00.190Z,15.97
2017-10-16T01:00:26.463Z,15.13
2017-10-16T01:02:52.714Z,18.03
2017-10-16T01:05:19.018Z,14.20
2017-10-16T01:07:45.309Z,16.33
2017-10-16T01:10:11.572Z,16.00
2017-10-16T01:12:38.046Z,13.27
2017-10-16T01:15:04.287Z,16.30
2017-10-16T01:17:30.530Z,20.40
2017-10-16T01:19:57.034Z,15.53
2017-10-16T01:22:23.304Z,13.90
2017-10-16T01:24:50.341Z,17.50
2017-10-16T01:27:17.409Z,17.20
2017-10-16T01:29:44.433Z,13.57
2017-10-16T01:32:10.719Z,18.60
2017-10-16T01:34:37.017Z,17.73
2017-10-16T01:37:04.063Z,14.00
2017-10-16T01:39:31.082Z,19.07
2017-10-16T01:41:57.342Z,15.80
2017-10-16T01:44:23.632Z,15.00
2017-10-16T01:46:49.882Z,22.53
2017-10-16T01:49:16.890Z,15.90
2017-10-16T01:51:43.220Z,16.17
2017-10-16T01:54:09.513Z,16.80
2017-10-16T01:56:35.770Z,18.10
2017-10-16T01:59:03.052Z,17.27
2017-10-16T02:01:29.283Z,21.40
2017-10-16T02:03:55.568Z,14.13
2017-10-16T02:06:21.850Z,16.23
2017-10-16T02:08:48.822Z,18.20
2017-10-16T02:11:15.069Z,13.67
2017-10-16T02:13:41.531Z,21.03
2017-10-16T02:16:07.761Z,21.93
2017-10-16T02:18:33.995Z,16.73
2017-10-16T02:21:00.522Z,17.20
2017-10-16T02:23:26.750Z,16.93
2017-10-16T02:25:53.002Z,20.33
2017-10-16T02:28:19.405Z,24.40
2017-10-16T02:30:46.374Z,18.23
2017-10-16T02:33:12.610Z,22.20
2017-10-16T02:35:39.213Z,28.23
2017-10-16T02:38:05.461Z,24.70
2017-10-16T02:40:31.685Z,20.07
2017-10-16T02:42:57.963Z,22.27
2017-10-16T02:45:24.196Z,18.23
2017-10-16T02:47:50.431Z,22.07
2017-10-16T02:50:16.948Z,22.20
2017-10-16T02:52:43.186Z,20.97
2017-10-16T02:55:09.415Z,19.10
2017-10-16T02:57:35.778Z,22.30
2017-10-16T03:00:02.055Z,22.27
2017-10-16T03:02:29.030Z,27.50
2017-10-16T03:04:55.270Z,25.03
2017-10-16T03:07:21.506Z,25.23
2017-10-16T03:09:47.747Z,23.83
2017-10-16T03:12:14.718Z,23.37
2017-10-16T03:14:41.734Z,24.40
2017-10-16T03:17:08.106Z,34.27
2017-10-16T03:19:35.078Z,26.13
2017-10-16T03:22:01.320Z,27.67
2017-10-16T03:24:27.603Z,24.13
2017-10-16T03:26:54.573Z,25.63
2017-10-16T03:29:21.575Z,28.90
2017-10-16T03:31:47.859Z,27.30
2017-10-16T03:34:14.103Z,28.40
2017-10-16T03:36:40.347Z,32.83
2017-10-16T03:39:06.658Z,29.67
2017-10-16T03:41:32.889Z,36.10
2017-10-16T03:43:59.131Z,26.10
2017-10-16T03:46:25.667Z,26.80
2017-10-16T03:48:52.671Z,34.90
2017-10-16T03:51:18.962Z,25.57
2017-10-16T03:53:45.218Z,30.23
2017-10-16T03:56:12.187Z,32.00
2017-10-16T03:58:38.413Z,30.50
2017-10-16T04:01:04.778Z,29.03
2017-10-16T04:03:31.903Z,40.20
2017-10-16T04:05:59.803Z,28.37
2017-10-16T04:08:26.158Z,29.40
2017-10-16T04:10:53.143Z,33.53
2017-10-16T04:13:20.299Z,35.00
2017-10-16T04:15:48.473Z,35.67
2017-10-16T04:18:16.373Z,31.07
2017-10-16T04:20:42.663Z,44.90
2017-10-16T04:23:09.906Z,33.30
2017-10-16T04:25:36.199Z,35.87
2017-10-16T04:28:03.221Z,31.70
2017-10-16T04:30:29.494Z,33.70
2017-10-16T04:32:55.759Z,38.27
2017-10-16T04:35:21.992Z,52.47
2017-10-16T04:37:48.275Z,33.00
2017-10-16T04:40:15.272Z,44.93
2017-10-16T04:42:41.534Z,34.73
2017-10-16T04:45:08.522Z,32.90
2017-10-16T04:47:34.755Z,32.50
2017-10-16T04:50:01.023Z,36.97
2017-10-16T04:52:27.262Z,36.50
2017-10-16T04:54:54.243Z,35.10
2017-10-16T04:57:20.833Z,35.80
2017-10-16T04:59:47.062Z,34.53
2017-10-16T05:02:13.290Z,36.50
2017-10-16T05:04:39.677Z,38.67
2017-10-16T05:07:05.906Z,36.20
2017-10-16T05:09:32.247Z,39.00
2017-10-16T05:11:58.505Z,38.23
2017-10-16T05:14:24.851Z,40.00
2017-10-16T05:16:51.822Z,38.10
2017-10-16T05:19:18.050Z,44.03
2017-10-16T05:21:44.311Z,39.63
2017-10-16T05:24:10.539Z,40.50
2017-10-16T05:26:36.757Z,44.93
2017-10-16T05:29:03.017Z,37.70
2017-10-16T05:31:29.262Z,44.50
2017-10-16T05:33:56.245Z,45.97
2017-10-16T05:36:22.831Z,37.93
2017-10-16T05:38:49.081Z,42.70
2017-10-16T05:41:16.098Z,42.27
2017-10-16T05:43:42.421Z,35.17
2017-10-16T05:46:08.695Z,42.67
2017-10-16T05:48:35.710Z,42.20
2017-10-16T05:51:02.074Z,45.40
2017-10-16T05:53:29.078Z,39.20
2017-10-16T05:55:55.331Z,39.07
2017-10-16T05:58:22.364Z,43.97
2017-10-16T06:00:48.648Z,40.17
2017-10-16T06:03:14.950Z,40.87
2017-10-16T06:05:41.995Z,37.20
2017-10-16T06:08:09.006Z,46.30
2017-10-16T06:10:35.322Z,37.63
2017-10-16T06:13:01.627Z,41.37
2017-10-16T06:15:27.949Z,40.20
2017-10-16T06:17:54.271Z,40.43
2017-10-16T06:20:21.310Z,42.13
2017-10-16T06:22:48.377Z,39.20
2017-10-16T06:25:14.973Z,43.20
2017-10-16T06:27:41.254Z,42.60
2017-10-16T06:30:07.536Z,52.83
2017-10-16T06:32:34.972Z,44.50
2017-10-16T06:35:01.258Z,39.83
2017-10-16T06:37:27.545Z,40.87
2017-10-16T06:39:54.079Z,46.30
2017-10-16T06:42:20.934Z,40.73
2017-10-16T06:44:47.336Z,43.07
2017-10-16T06:47:13.663Z,48.27
2017-10-16T06:49:39.966Z,47.13
2017-10-16T06:52:06.255Z,46.30
2017-10-16T06:54:33.593Z,45.93
2017-10-16T06:56:59.846Z,47.40
2017-10-16T06:59:26.864Z,50.23
2017-10-16T07:01:53.499Z,45.97
2017-10-16T07:04:20.068Z,56.80
2017-10-16T07:06:47.061Z,51.10
2017-10-16T07:09:13.339Z,52.63
2017-10-16T07:11:40.348Z,44.07
2017-10-16T07:14:06.634Z,47.97
2017-10-16T07:16:33.736Z,46.50
2017-10-16T07:18:59.993Z,50.80
2017-10-16T07:21:27.987Z,49.27
2017-10-16T07:23:54.288Z,43.83
2017-10-16T07:26:21.321Z,49.50
2017-10-16T07:28:47.842Z,43.80
2017-10-16T07:31:14.123Z,43.17
2017-10-16T07:33:40.428Z,53.67
2017-10-16T07:36:07.546Z,115.20
2017-10-16T07:38:33.795Z,143.03
2017-10-16T07:41:00.105Z,62.40
2017-10-16T07:43:27.182Z,48.67
2017-10-16T07:45:54.564Z,86.70
2017-10-16T07:48:20.825Z,66.17
2017-10-16T07:50:47.139Z,41.03
2017-10-16T07:53:13.415Z,71.83
2017-10-16T07:55:40.406Z,40.20
2017-10-16T07:58:06.696Z,45.83
2017-10-16T08:00:33.729Z,76.97
2017-10-16T08:02:59.985Z,46.07
2017-10-16T08:05:27.115Z,58.70
2017-10-16T08:07:53.447Z,49.73
2017-10-16T08:10:19.707Z,45.40
2017-10-16T08:12:46.016Z,89.00
2017-10-16T08:15:13.126Z,57.20
2017-10-16T08:17:39.390Z,62.80
2017-10-16T08:20:06.630Z,66.30
2017-10-16T08:22:32.945Z,60.83
2017-10-16T08:24:59.240Z,40.80
2017-10-16T08:27:25.643Z,51.77
2017-10-16T08:29:52.785Z,37.57
2017-10-16T08:32:19.822Z,39.43
2017-10-16T08:34:46.134Z,56.93
2017-10-16T08:37:12.446Z,44.80
2017-10-16T08:39:38.877Z,41.60
2017-10-16T08:42:05.227Z,38.23
2017-10-16T08:44:31.535Z,41.60
2017-10-16T08:46:58.183Z,48.37
2017-10-16T08:49:24.633Z,37.97
2017-10-16T08:51:52.210Z,35.80
2017-10-16T08:54:18.699Z,41.30
2017-10-16T08:56:45.760Z,43.03
2017-10-16T08:59:12.081Z,41.23
2017-10-16T09:01:38.415Z,37.60
2017-10-16T09:04:04.730Z,38.33
2017-10-16T09:06:31.831Z,35.83
2017-10-16T09:08:58.247Z,38.47
2017-10-16T09:11:24.590Z,41.70
2017-10-16T09:13:51.691Z,43.63
2017-10-16T09:16:18.008Z,36.50
2017-10-16T09:18:44.363Z,37.33
2017-10-16T09:21:10.634Z,41.13
2017-10-16T09:23:37.659Z,35.63
2017-10-16T09:26:05.179Z,37.97
2017-10-16T09:28:32.316Z,52.60
2017-10-16T09:30:59.401Z,56.93
2017-10-16T09:33:27.273Z,47.97
2017-10-16T09:35:53.619Z,48.27
2017-10-16T09:38:21.187Z,39.70
2017-10-16T09:40:48.523Z,41.03
2017-10-16T09:43:15.491Z,32.80
2017-10-16T09:45:43.136Z,46.30
2017-10-16T09:48:10.611Z,41.83
2017-10-16T09:50:37.656Z,36.37
2017-10-16T09:53:05.221Z,38.83
2017-10-16T09:55:33.955Z,58.77
2017-10-16T09:58:00.274Z,54.70
2017-10-16T10:00:26.577Z,31.03
2017-10-16T10:02:53.715Z,40.57
2017-10-16T10:05:22.399Z,40.37
2017-10-16T10:07:49.444Z,44.07
2017-10-16T10:10:17.122Z,37.10
2017-10-16T10:12:44.612Z,55.53
2017-10-16T10:15:10.935Z,56.43
2017-10-16T10:17:38.617Z,38.33
2017-10-16T10:20:04.932Z,35.53
2017-10-16T10:22:31.226Z,37.03
2017-10-16T10:24:58.256Z,57.63
2017-10-16T10:27:26.174Z,46.33
2017-10-16T10:29:52.498Z,33.17
2017-10-16T10:32:19.346Z,36.07
2017-10-16T10:34:45.881Z,39.33
2017-10-16T10:37:12.256Z,35.57
2017-10-16T10:39:38.522Z,35.43
2017-10-16T10:42:04.780Z,31.80
2017-10-16T10:44:33.104Z,45.13
2017-10-16T10:47:00.343Z,75.53
2017-10-16T10:49:27.652Z,36.53
2017-10-16T10:51:54.983Z,32.93
2017-10-16T10:54:21.275Z,32.30
2017-10-16T10:56:47.553Z,41.90
2017-10-16T10:59:13.905Z,44.77
2017-10-16T11:01:40.939Z,40.43
2017-10-16T11:04:07.240Z,38.87
2017-10-16T11:06:34.292Z,36.03
2017-10-16T11:09:01.314Z,30.97
2017-10-16T11:11:27.616Z,34.50
2017-10-16T11:13:53.953Z,34.00
2017-10-16T11:16:20.244Z,33.07
2017-10-16T11:18:47.079Z,25.20
2017-10-16T11:21:14.448Z,29.33
2017-10-16T11:23:40.740Z,29.97
2017-10-16T11:26:07.766Z,32.57
2017-10-16T11:28:34.415Z,27.20
2017-10-16T11:31:01.465Z,28.27
2017-10-16T11:33:28.496Z,37.20
2017-10-16T11:35:54.844Z,31.60
2017-10-16T11:38:21.883Z,35.67
2017-10-16T11:40:48.175Z,27.60
2017-10-16T11:43:14.825Z,37.83
2017-10-16T11:45:42.119Z,39.67
2017-10-16T11:48:09.121Z,29.13
2017-10-16T11:50:35.779Z,26.37
2017-10-16T11:53:02.064Z,29.03
2017-10-16T11:55:28.398Z,23.43
2017-10-16T11:57:54.715Z,36.40
2017-10-16T12:00:21.575Z,30.27
2017-10-16T12:02:48.480Z,31.43
2017-10-16T12:05:16.521Z,32.03
2017-10-16T12:07:44.204Z,32.33
2017-10-16T12:10:11.235Z,25.33
2017-10-16T12:12:37.586Z,26.60
2017-10-16T12:15:04.623Z,27.57
2017-10-16T12:17:31.719Z,28.40
2017-10-16T12:19:58.931Z,39.03
2017-10-16T12:22:25.970Z,34.77
2017-10-16T12:24:53.057Z,35.53
2017-10-16T12:27:19.435Z,48.47
2017-10-16T12:29:45.742Z,32.23
2017-10-16T12:32:12.055Z,28.63
2017-10-16T12:34:38.382Z,28.10
2017-10-16T12:37:04.665Z,30.20
2017-10-16T12:39:31.024Z,21.33
2017-10-16T12:41:57.392Z,19.50
2017-10-16T12:44:23.769Z,20.63
2017-10-16T12:46:50.879Z,28.07
2017-10-16T12:49:17.891Z,28.33
2017-10-16T12:51:44.205Z,21.23
2017-10-16T12:54:11.313Z,21.60
2017-10-16T12:56:37.643Z,20.10
2017-10-16T12:59:03.906Z,21.53
2017-10-16T13:01:30.918Z,22.83
2017-10-16T13:03:57.309Z,23.37
2017-10-16T13:06:23.693Z,23.50
2017-10-16T13:08:50.028Z,21.90
2017-10-16T13:11:16.299Z,23.67
2017-10-16T13:13:42.606Z,22.43
2017-10-16T13:16:09.653Z,19.30
2017-10-16T13:18:36.729Z,20.43
2017-10-16T13:21:03.121Z,26.67
2017-10-16T13:23:29.413Z,18.47
2017-10-16T13:25:55.708Z,19.90
2017-10-16T13:28:22.083Z,26.13
2017-10-16T13:30:48.455Z,19.70
2017-10-16T13:33:15.560Z,21.83
2017-10-16T13:35:41.875Z,17.73
2017-10-16T13:38:08.181Z,16.00
2017-10-16T13:40:34.496Z,18.40
2017-10-16T13:43:01.914Z,16.53
2017-10-16T13:45:28.227Z,23.17
2017-10-16T13:47:54.564Z,16.07
2017-10-16T13:50:21.150Z,28.07
2017-10-16T13:52:47.461Z,23.70
2017-10-16T13:55:13.801Z,20.57
2017-10-16T13:57:41.037Z,23.83
2017-10-16T14:00:07.316Z,21.80
2017-10-16T14:02:33.672Z,19.13
2017-10-16T14:05:00.033Z,22.33
2017-10-16T14:07:26.326Z,22.50
2017-10-16T14:09:52.628Z,21.00
2017-10-16T14:12:19.034Z,49.47
2017-10-16T14:14:46.073Z,27.67
2017-10-16T14:17:12.422Z,24.40
2017-10-16T14:19:39.483Z,36.90
2017-10-16T14:22:05.789Z,28.60
2017-10-16T14:24:32.845Z,26.63
2017-10-16T14:26:59.867Z,21.93
2017-10-16T14:29:29.907Z,26.00
2017-10-16T14:31:56.979Z,27.07
2017-10-16T14:34:23.304Z,25.40
2017-10-16T14:36:49.642Z,23.53
2017-10-16T14:39:15.955Z,29.77
2017-10-16T14:41:42.460Z,25.23
2017-10-16T14:44:08.791Z,27.70
2017-10-16T14:46:35.072Z,24.77
2017-10-16T14:49:01.400Z,24.97
2017-10-16T14:51:27.704Z,24.47
2017-10-16T14:53:54.741Z,25.40
2017-10-16T14:56:21.977Z,20.00
2017-10-16T14:58:48.328Z,26.63
2017-10-16T15:01:15.362Z,23.70
2017-10-16T15:03:42.450Z,19.10
2017-10-16T15:06:08.742Z,28.30
2017-10-16T15:08:35.932Z,25.27
2017-10-16T15:11:02.232Z,22.80
2017-10-16T15:13:29.269Z,25.90
2017-10-16T15:15:56.392Z,23.63
2017-10-16T15:18:22.708Z,20.70
2017-10-16T15:20:49.016Z,26.10
2017-10-16T15:23:15.700Z,22.70
2017-10-16T15:25:41.993Z,24.70
2017-10-16T15:28:08.331Z,25.77
2017-10-16T15:30:34.998Z,35.13
2017-10-16T15:33:01.338Z,22.10
2017-10-16T15:35:27.657Z,26.90
2017-10-16T15:37:53.980Z,45.40
2017-10-16T15:40:20.292Z,127.03
2017-10-16T15:42:47.395Z,114.03
2017-10-16T15:45:14.708Z,41.73
2017-10-16T15:47:40.995Z,31.03
2017-10-16T15:50:07.294Z,63.90
2017-10-16T15:52:34.370Z,33.13
2017-10-16T15:55:00.681Z,39.20
2017-10-16T15:57:29.220Z,24.50
2017-10-16T15:59:55.555Z,22.70
2017-10-16T16:02:21.906Z,32.10
2017-10-16T16:04:48.217Z,27.53
2017-10-16T16:07:14.669Z,32.00
2017-10-16T16:09:40.974Z,31.73
2017-10-16T16:12:07.279Z,28.77
2017-10-16T16:14:33.635Z,25.67
2017-10-16T16:16:59.931Z,33.87
2017-10-16T16:19:26.210Z,27.83
2017-10-16T16:21:52.501Z,29.23
2017-10-16T16:24:18.838Z,27.30
2017-10-16T16:26:45.176Z,32.53
2017-10-16T16:29:11.480Z,37.33
2017-10-16T16:31:37.782Z,35.00
2017-10-16T16:34:04.814Z,36.83
2017-10-16T16:36:31.189Z,24.80
2017-10-16T16:38:57.474Z,26.63
2017-10-16T16:41:23.801Z,27.40
2017-10-16T16:43:50.115Z,50.73
2017-10-16T16:46:16.418Z,159.37
2017-10-16T16:48:42.696Z,96.10
2017-10-16T16:51:08.999Z,53.57
2017-10-16T16:53:35.283Z,31.47
2017-10-16T16:56:02.285Z,36.73
2017-10-16T16:58:28.918Z,27.30
2017-10-16T17:00:55.209Z,23.33
2017-10-16T17:03:21.498Z,39.37
2017-10-16T17:05:47.922Z,44.00
2017-10-16T17:08:14.222Z,49.77
2017-10-16T17:10:40.790Z,38.10
2017-10-16T17:13:07.165Z,42.60
2017-10-16T17:15:33.472Z,31.80
2017-10-16T17:18:00.508Z,41.70
2017-10-16T17:20:26.907Z,66.63
2017-10-16T17:22:53.292Z,74.60
2017-10-16T17:25:20.354Z,48.30
2017-10-16T17:27:46.740Z,64.47
2017-10-16T17:30:13.037Z,53.03
2017-10-16T17:32:39.355Z,39.97
2017-10-16T17:35:05.675Z,36.37
2017-10-16T17:37:32.002Z,34.13
2017-10-16T17:39:58.305Z,33.07
2017-10-16T17:42:25.395Z,47.20
2017-10-16T17:44:51.682Z,122.40
2017-10-16T17:47:18.739Z,60.00
2017-10-16T17:49:45.800Z,89.97
2017-10-16T17:52:12.063Z,62.73
2017-10-16T17:54:38.352Z,105.87
2017-10-16T17:57:05.572Z,115.27
2017-10-16T17:59:31.847Z,68.10
2017-10-16T18:01:58.131Z,64.03
2017-10-16T18:04:24.449Z,41.43
2017-10-16T18:06:50.749Z,39.33
2017-10-16T18:09:17.101Z,38.93
2017-10-16T18:11:43.506Z,36.77
2017-10-16T18:14:09.767Z,39.00
2017-10-16T18:16:36.412Z,27.17
2017-10-16T18:19:02.731Z,36.00
2017-10-16T18:21:28.992Z,25.27
2017-10-16T18:23:56.085Z,31.23
2017-10-16T18:26:22.381Z,31.07
2017-10-16T18:28:49.408Z,38.63
2017-10-16T18:31:15.752Z,29.27
2017-10-16T18:33:42.789Z,34.37
2017-10-16T18:36:09.104Z,38.50
2017-10-16T18:38:35.644Z,37.67
2017-10-16T18:41:02.659Z,34.07
2017-10-16T18:43:28.939Z,38.63
2017-10-16T18:45:55.959Z,34.10
2017-10-16T18:48:22.225Z,33.97
2017-10-16T18:50:49.216Z,38.30
2017-10-16T18:53:15.535Z,45.33
2017-10-16T18:55:41.786Z,44.23
2017-10-16T18:58:08.128Z,32.97
2017-10-16T19:00:34.479Z,38.47
2017-10-16T19:03:01.541Z,41.37
2017-10-16T19:05:28.884Z,39.93
2017-10-16T19:07:55.990Z,35.40
2017-10-16T19:10:22.296Z,44.60
2017-10-16T19:12:48.558Z,32.93
2017-10-16T19:15:14.880Z,36.50
2017-10-16T19:17:41.173Z,41.13
2017-10-16T19:20:07.502Z,36.33
2017-10-16T19:22:33.834Z,37.70
2017-10-16T19:25:00.167Z,39.17
2017-10-16T19:27:26.446Z,29.10
2017-10-16T19:29:52.761Z,35.33
2017-10-16T19:32:19.114Z,37.27
2017-10-16T19:34:45.406Z,35.70
2017-10-16T19:37:11.681Z,35.00
2017-10-16T19:39:37.993Z,34.10
2017-10-16T19:42:04.314Z,32.60
2017-10-16T19:44:30.853Z,34.60
2017-10-16T19:46:57.121Z,36.93
2017-10-16T19:49:24.199Z,40.03
2017-10-16T19:51:50.526Z,46.50
2017-10-16T19:54:16.794Z,34.13
2017-10-16T19:56:43.047Z,31.17
2017-10-16T19:59:10.355Z,35.73
2017-10-16T20:01:36.644Z,48.00
2017-10-16T20:04:03.646Z,33.17
2017-10-16T20:06:29.922Z,41.07
2017-10-16T20:08:56.951Z,31.93
2017-10-16T20:11:23.208Z,37.80
2017-10-16T20:13:49.508Z,30.23
2017-10-16T20:16:16.512Z,36.40
2017-10-16T20:18:42.784Z,34.93
2017-10-16T20:21:09.838Z,30.40
2017-10-16T20:23:36.843Z,33.40
2017-10-16T20:26:03.390Z,34.00
2017-10-16T20:28:29.668Z,40.63
2017-10-16T20:30:55.966Z,49.50
2017-10-16T20:33:22.987Z,49.63
2017-10-16T20:35:49.267Z,51.83
2017-10-16T20:38:15.540Z,62.73
2017-10-16T20:40:42.075Z,47.63
2017-10-16T20:43:08.357Z,40.80
2017-10-16T20:45:35.358Z,39.37
2017-10-16T20:48:01.666Z,48.33
2017-10-16T20:50:27.930Z,38.03
2017-10-16T20:52:54.193Z,36.40
2017-10-16T20:55:20.488Z,32.80
2017-10-16T20:57:46.752Z,32.87
2017-10-16T21:00:14.929Z,30.83
2017-10-16T21:02:41.205Z,35.07
2017-10-16T21:05:07.450Z,34.87
2017-10-16T21:07:33.707Z,35.40
2017-10-16T21:09:59.995Z,41.50
2017-10-16T21:12:26.293Z,35.60
2017-10-16T21:14:52.561Z,33.60
2017-10-16T21:17:18.882Z,36.60
2017-10-16T21:19:45.141Z,36.40
2017-10-16T21:22:12.150Z,38.33
2017-10-16T21:24:38.495Z,40.07
2017-10-16T21:27:04.769Z,39.67
2017-10-16T21:29:31.035Z,32.50
2017-10-16T21:31:58.073Z,38.20
2017-10-16T21:34:24.331Z,31.47
2017-10-16T21:36:50.602Z,41.30
2017-10-16T21:39:17.051Z,62.33
2017-10-16T21:41:43.287Z,36.73
2017-10-16T21:44:09.674Z,51.60
2017-10-16T21:46:36.706Z,39.00
2017-10-16T21:49:03.013Z,59.00
2017-10-16T21:51:29.312Z,44.00
2017-10-16T21:53:55.594Z,32.87
2017-10-16T21:56:22.055Z,35.90
2017-10-16T21:58:49.055Z,60.77
2017-10-16T22:01:15.355Z,38.80
2017-10-16T22:03:41.658Z,33.80
2017-10-16T22:06:08.701Z,36.83
2017-10-16T22:08:35.707Z,33.30
2017-10-16T22:11:01.999Z,31.47
2017-10-16T22:13:28.875Z,30.40
2017-10-16T22:15:55.154Z,28.37
2017-10-16T22:18:22.178Z,30.40
2017-10-16T22:20:48.711Z,22.43
2017-10-16T22:23:14.966Z,30.23
2017-10-16T22:25:41.966Z,33.07
2017-10-16T22:28:09.216Z,25.80
2017-10-16T22:30:35.523Z,32.03
2017-10-16T22:33:01.781Z,29.77
2017-10-16T22:35:28.186Z,29.40
2017-10-16T22:37:54.466Z,29.23
2017-10-16T22:40:21.470Z,27.70
2017-10-16T22:42:47.774Z,24.20
2017-10-16T22:45:14.053Z,26.70
2017-10-16T22:47:40.342Z,30.00
2017-10-16T22:50:06.628Z,27.23
2017-10-16T22:52:33.622Z,21.53
2017-10-16T22:54:59.930Z,24.07
2017-10-16T22:57:26.611Z,19.10
2017-10-16T22:59:53.001Z,26.03
2017-10-16T23:02:19.258Z,26.07
2017-10-16T23:04:45.549Z,28.00
2017-10-16T23:07:12.550Z,24.53
2017-10-16T23:09:38.806Z,24.97
2017-10-16T23:12:06.129Z,22.43
2017-10-16T23:14:32.390Z,21.80
2017-10-16T23:16:59.404Z,25.33
2017-10-16T23:19:25.707Z,20.40
2017-10-16T23:21:52.023Z,19.33
2017-10-16T23:24:18.313Z,25.90
2017-10-16T23:26:44.590Z,20.90
2017-10-16T23:29:10.851Z,21.27
2017-10-16T23:31:37.111Z,17.13
2017-10-16T23:34:04.134Z,18.50
2017-10-16T23:36:30.438Z,25.23
2017-10-16T23:38:56.737Z,23.77
2017-10-16T23:41:23.162Z,25.93
2017-10-16T23:43:50.207Z,24.33
2017-10-16T23:46:17.215Z,17.03
2017-10-16T23:48:43.678Z,24.93
2017-10-16T23:51:10.686Z,25.13
2017-10-16T23:53:36.934Z,22.33
2017-10-16T23:56:03.214Z,19.60
2017-10-16T23:58:29.474Z,18.30
